sensor_id;sensor_type;location;lat;lon;timestamp;pressure;altitude;pressure_sealevel;temperature
15575;BMP180;7888;46.748;8.102;2022-09-01T00:01:49;94162.00;;;22.70
15575;BMP180;7888;46.748;8.102;2022-09-01T00:04:22;94166.00;;;22.70
15575;BMP180;7888;46.748;8.102;2022-09-01T00:06:52;94144.00;;;22.60
15575;BMP180;7888;46.748;8.102;2022-09-01T00:09:22;94161.00;;;22.60
15575;BMP180;7888;46.748;8.102;2022-09-01T00:11:53;94168.00;;;22.60
15575;BMP180;7888;46.748;8.102;2022-09-01T00:14:25;94165.00;;;22.50
15575;BMP180;7888;46.748;8.102;2022-09-01T00:16:51;94167.00;;;22.50
15575;BMP180;7888;46.748;8.102;2022-09-01T00:19:19;94156.00;;;22.50
15575;BMP180;7888;46.748;8.102;2022-09-01T00:21:46;94157.00;;;22.50
15575;BMP180;7888;46.748;8.102;2022-09-01T00:24:15;94151.00;;;22.60
15575;BMP180;7888;46.748;8.102;2022-09-01T00:26:42;94146.00;;;22.60
15575;BMP180;7888;46.748;8.102;2022-09-01T00:29:08;94153.00;;;22.70
15575;BMP180;7888;46.748;8.102;2022-09-01T00:31:35;94161.00;;;22.60
15575;BMP180;7888;46.748;8.102;2022-09-01T00:34:02;94161.00;;;22.70
15575;BMP180;7888;46.748;8.102;2022-09-01T00:36:28;94137.00;;;22.70
15575;BMP180;7888;46.748;8.102;2022-09-01T00:38:54;94129.00;;;22.70
15575;BMP180;7888;46.748;8.102;2022-09-01T00:41:24;94140.00;;;22.70
15575;BMP180;7888;46.748;8.102;2022-09-01T00:44:02;94139.00;;;22.60
15575;BMP180;7888;46.748;8.102;2022-09-01T00:46:38;94138.00;;;22.60
15575;BMP180;7888;46.748;8.102;2022-09-01T00:49:31;94124.00;;;22.70
15575;BMP180;7888;46.748;8.102;2022-09-01T00:52:13;94124.00;;;22.60
15575;BMP180;7888;46.748;8.102;2022-09-01T00:54:48;94126.00;;;22.70
15575;BMP180;7888;46.748;8.102;2022-09-01T00:57:15;94127.00;;;22.70
15575;BMP180;7888;46.748;8.102;2022-09-01T01:00:21;94127.00;;;22.60
15575;BMP180;7888;46.748;8.102;2022-09-01T01:02:49;94124.00;;;22.70
15575;BMP180;7888;46.748;8.102;2022-09-01T01:05:30;94100.00;;;22.60
15575;BMP180;7888;46.748;8.102;2022-09-01T01:07:59;94122.00;;;22.60
15575;BMP180;7888;46.748;8.102;2022-09-01T01:10:31;94117.00;;;22.60
15575;BMP180;7888;46.748;8.102;2022-09-01T01:13:00;94119.00;;;22.60
15575;BMP180;7888;46.748;8.102;2022-09-01T01:15:28;94125.00;;;22.60
15575;BMP180;7888;46.748;8.102;2022-09-01T01:17:55;94126.00;;;22.50
15575;BMP180;7888;46.748;8.102;2022-09-01T01:20:27;94125.00;;;22.50
15575;BMP180;7888;46.748;8.102;2022-09-01T01:25:59;94114.00;;;22.40
15575;BMP180;7888;46.748;8.102;2022-09-01T01:28:33;94120.00;;;22.40
15575;BMP180;7888;46.748;8.102;2022-09-01T01:31:07;94123.00;;;22.40
15575;BMP180;7888;46.748;8.102;2022-09-01T01:33:42;94119.00;;;22.30
15575;BMP180;7888;46.748;8.102;2022-09-01T01:36:21;94124.00;;;22.30
15575;BMP180;7888;46.748;8.102;2022-09-01T01:39:00;94117.00;;;22.30
15575;BMP180;7888;46.748;8.102;2022-09-01T01:41:32;94129.00;;;22.30
15575;BMP180;7888;46.748;8.102;2022-09-01T01:44:01;94117.00;;;22.30
15575;BMP180;7888;46.748;8.102;2022-09-01T01:46:32;94142.00;;;22.20
15575;BMP180;7888;46.748;8.102;2022-09-01T01:48:59;94117.00;;;22.20
15575;BMP180;7888;46.748;8.102;2022-09-01T01:51:28;94129.00;;;22.20
15575;BMP180;7888;46.748;8.102;2022-09-01T01:53:58;94133.00;;;22.20
15575;BMP180;7888;46.748;8.102;2022-09-01T01:56:26;94115.00;;;22.20
15575;BMP180;7888;46.748;8.102;2022-09-01T01:58:55;94127.00;;;22.10
15575;BMP180;7888;46.748;8.102;2022-09-01T02:01:27;94133.00;;;22.00
15575;BMP180;7888;46.748;8.102;2022-09-01T02:03:55;94137.00;;;22.00
15575;BMP180;7888;46.748;8.102;2022-09-01T02:06:24;94135.00;;;22.00
15575;BMP180;7888;46.748;8.102;2022-09-01T02:08:54;94129.00;;;22.00
15575;BMP180;7888;46.748;8.102;2022-09-01T02:11:28;94124.00;;;22.00
15575;BMP180;7888;46.748;8.102;2022-09-01T02:13:55;94124.00;;;22.00
15575;BMP180;7888;46.748;8.102;2022-09-01T02:16:27;94107.00;;;21.80
15575;BMP180;7888;46.748;8.102;2022-09-01T02:18:54;94127.00;;;21.90
15575;BMP180;7888;46.748;8.102;2022-09-01T02:21:23;94124.00;;;21.90
15575;BMP180;7888;46.748;8.102;2022-09-01T02:23:54;94130.00;;;21.80
15575;BMP180;7888;46.748;8.102;2022-09-01T02:26:28;94128.00;;;21.80
15575;BMP180;7888;46.748;8.102;2022-09-01T02:29:00;94123.00;;;21.70
15575;BMP180;7888;46.748;8.102;2022-09-01T02:31:31;94090.00;;;21.80
15575;BMP180;7888;46.748;8.102;2022-09-01T02:34:01;94124.00;;;21.80
15575;BMP180;7888;46.748;8.102;2022-09-01T02:36:28;94120.00;;;21.80
15575;BMP180;7888;46.748;8.102;2022-09-01T02:38:57;94118.00;;;21.80
15575;BMP180;7888;46.748;8.102;2022-09-01T02:41:23;94108.00;;;21.80
15575;BMP180;7888;46.748;8.102;2022-09-01T02:43:54;94124.00;;;21.80
15575;BMP180;7888;46.748;8.102;2022-09-01T02:46:20;94120.00;;;21.80
15575;BMP180;7888;46.748;8.102;2022-09-01T02:48:48;94119.00;;;21.80
15575;BMP180;7888;46.748;8.102;2022-09-01T02:51:18;94122.00;;;21.80
15575;BMP180;7888;46.748;8.102;2022-09-01T02:53:47;94105.00;;;21.80
15575;BMP180;7888;46.748;8.102;2022-09-01T02:56:24;94108.00;;;21.70
15575;BMP180;7888;46.748;8.102;2022-09-01T02:58:52;94131.00;;;21.80
15575;BMP180;7888;46.748;8.102;2022-09-01T03:01:26;94114.00;;;21.70
15575;BMP180;7888;46.748;8.102;2022-09-01T03:04:01;94127.00;;;21.70
15575;BMP180;7888;46.748;8.102;2022-09-01T03:06:28;94132.00;;;21.70
15575;BMP180;7888;46.748;8.102;2022-09-01T03:08:57;94127.00;;;21.60
15575;BMP180;7888;46.748;8.102;2022-09-01T03:11:30;94118.00;;;21.70
15575;BMP180;7888;46.748;8.102;2022-09-01T03:13:56;94130.00;;;21.70
15575;BMP180;7888;46.748;8.102;2022-09-01T03:16:22;94118.00;;;21.70
15575;BMP180;7888;46.748;8.102;2022-09-01T03:18:49;94125.00;;;21.70
15575;BMP180;7888;46.748;8.102;2022-09-01T03:21:15;94122.00;;;21.60
15575;BMP180;7888;46.748;8.102;2022-09-01T03:23:43;94130.00;;;21.60
15575;BMP180;7888;46.748;8.102;2022-09-01T03:26:10;94118.00;;;21.60
15575;BMP180;7888;46.748;8.102;2022-09-01T03:28:36;94125.00;;;21.60
15575;BMP180;7888;46.748;8.102;2022-09-01T03:31:03;94125.00;;;21.60
15575;BMP180;7888;46.748;8.102;2022-09-01T03:33:29;94125.00;;;21.60
15575;BMP180;7888;46.748;8.102;2022-09-01T03:35:57;94105.00;;;21.50
15575;BMP180;7888;46.748;8.102;2022-09-01T03:38:24;94123.00;;;21.50
15575;BMP180;7888;46.748;8.102;2022-09-01T03:41:00;94121.00;;;21.50
15575;BMP180;7888;46.748;8.102;2022-09-01T03:43:29;94118.00;;;21.40
15575;BMP180;7888;46.748;8.102;2022-09-01T03:45:56;94113.00;;;21.40
15575;BMP180;7888;46.748;8.102;2022-09-01T03:48:29;94123.00;;;21.40
15575;BMP180;7888;46.748;8.102;2022-09-01T03:50:58;94127.00;;;21.40
15575;BMP180;7888;46.748;8.102;2022-09-01T03:53:32;94122.00;;;21.40
15575;BMP180;7888;46.748;8.102;2022-09-01T03:55:58;94126.00;;;21.40
15575;BMP180;7888;46.748;8.102;2022-09-01T03:58:25;94117.00;;;21.40
15575;BMP180;7888;46.748;8.102;2022-09-01T04:00:54;94116.00;;;21.40
15575;BMP180;7888;46.748;8.102;2022-09-01T04:03:27;94116.00;;;21.30
15575;BMP180;7888;46.748;8.102;2022-09-01T04:05:54;94112.00;;;21.30
15575;BMP180;7888;46.748;8.102;2022-09-01T04:08:21;94109.00;;;21.30
15575;BMP180;7888;46.748;8.102;2022-09-01T04:10:54;94107.00;;;21.20
15575;BMP180;7888;46.748;8.102;2022-09-01T04:13:26;94098.00;;;21.20
15575;BMP180;7888;46.748;8.102;2022-09-01T04:15:56;94108.00;;;21.20
15575;BMP180;7888;46.748;8.102;2022-09-01T04:18:23;94111.00;;;21.20
15575;BMP180;7888;46.748;8.102;2022-09-01T04:20:56;94101.00;;;21.10
15575;BMP180;7888;46.748;8.102;2022-09-01T04:23:29;94101.00;;;21.10
15575;BMP180;7888;46.748;8.102;2022-09-01T04:26:00;94093.00;;;21.10
15575;BMP180;7888;46.748;8.102;2022-09-01T04:28:40;94104.00;;;21.10
15575;BMP180;7888;46.748;8.102;2022-09-01T04:31:10;94103.00;;;21.10
15575;BMP180;7888;46.748;8.102;2022-09-01T04:33:43;94105.00;;;21.10
15575;BMP180;7888;46.748;8.102;2022-09-01T04:36:18;94108.00;;;21.10
15575;BMP180;7888;46.748;8.102;2022-09-01T04:38:46;94107.00;;;21.10
15575;BMP180;7888;46.748;8.102;2022-09-01T04:41:14;94096.00;;;21.20
15575;BMP180;7888;46.748;8.102;2022-09-01T04:43:46;94096.00;;;21.10
15575;BMP180;7888;46.748;8.102;2022-09-01T04:46:19;94096.00;;;21.20
15575;BMP180;7888;46.748;8.102;2022-09-01T04:48:46;94104.00;;;21.20
15575;BMP180;7888;46.748;8.102;2022-09-01T04:51:13;94099.00;;;21.20
15575;BMP180;7888;46.748;8.102;2022-09-01T04:53:41;94092.00;;;21.20
15575;BMP180;7888;46.748;8.102;2022-09-01T04:56:15;94102.00;;;21.20
15575;BMP180;7888;46.748;8.102;2022-09-01T04:58:49;94089.00;;;21.20
15575;BMP180;7888;46.748;8.102;2022-09-01T05:01:22;94099.00;;;21.20
15575;BMP180;7888;46.748;8.102;2022-09-01T05:03:49;94098.00;;;21.30
15575;BMP180;7888;46.748;8.102;2022-09-01T05:06:22;94098.00;;;21.30
15575;BMP180;7888;46.748;8.102;2022-09-01T05:08:48;94094.00;;;21.30
15575;BMP180;7888;46.748;8.102;2022-09-01T05:11:15;94110.00;;;21.30
15575;BMP180;7888;46.748;8.102;2022-09-01T05:13:47;94071.00;;;21.20
15575;BMP180;7888;46.748;8.102;2022-09-01T05:16:18;94101.00;;;21.20
15575;BMP180;7888;46.748;8.102;2022-09-01T05:18:48;94107.00;;;21.30
15575;BMP180;7888;46.748;8.102;2022-09-01T05:21:19;94093.00;;;21.20
15575;BMP180;7888;46.748;8.102;2022-09-01T05:23:49;94101.00;;;21.20
15575;BMP180;7888;46.748;8.102;2022-09-01T05:26:23;94102.00;;;21.20
15575;BMP180;7888;46.748;8.102;2022-09-01T05:28:57;94113.00;;;21.20
15575;BMP180;7888;46.748;8.102;2022-09-01T05:31:27;94078.00;;;21.20
15575;BMP180;7888;46.748;8.102;2022-09-01T05:33:54;94104.00;;;21.20
15575;BMP180;7888;46.748;8.102;2022-09-01T05:36:23;94061.00;;;21.20
15575;BMP180;7888;46.748;8.102;2022-09-01T05:38:50;94109.00;;;21.20
15575;BMP180;7888;46.748;8.102;2022-09-01T05:41:18;94096.00;;;21.20
15575;BMP180;7888;46.748;8.102;2022-09-01T05:43:48;94112.00;;;21.30
15575;BMP180;7888;46.748;8.102;2022-09-01T05:46:21;94113.00;;;21.30
15575;BMP180;7888;46.748;8.102;2022-09-01T05:48:50;94095.00;;;21.30
15575;BMP180;7888;46.748;8.102;2022-09-01T05:51:22;94118.00;;;21.30
15575;BMP180;7888;46.748;8.102;2022-09-01T05:53:52;94119.00;;;21.30
15575;BMP180;7888;46.748;8.102;2022-09-01T05:56:20;94114.00;;;21.30
15575;BMP180;7888;46.748;8.102;2022-09-01T05:58:47;94114.00;;;21.30
15575;BMP180;7888;46.748;8.102;2022-09-01T06:01:22;94117.00;;;21.20
15575;BMP180;7888;46.748;8.102;2022-09-01T06:03:56;94092.00;;;21.30
15575;BMP180;7888;46.748;8.102;2022-09-01T06:06:29;94119.00;;;21.30
15575;BMP180;7888;46.748;8.102;2022-09-01T06:08:57;94117.00;;;21.30
15575;BMP180;7888;46.748;8.102;2022-09-01T06:11:25;94119.00;;;21.30
15575;BMP180;7888;46.748;8.102;2022-09-01T06:13:53;94122.00;;;21.40
15575;BMP180;7888;46.748;8.102;2022-09-01T06:16:21;94121.00;;;21.40
15575;BMP180;7888;46.748;8.102;2022-09-01T06:18:50;94125.00;;;21.50
15575;BMP180;7888;46.748;8.102;2022-09-01T06:21:20;94136.00;;;21.50
15575;BMP180;7888;46.748;8.102;2022-09-01T06:23:47;94147.00;;;21.50
15575;BMP180;7888;46.748;8.102;2022-09-01T06:29:06;94135.00;;;21.50
15575;BMP180;7888;46.748;8.102;2022-09-01T06:31:35;94130.00;;;21.50
15575;BMP180;7888;46.748;8.102;2022-09-01T06:34:07;94152.00;;;21.50
15575;BMP180;7888;46.748;8.102;2022-09-01T06:36:36;94147.00;;;21.60
15575;BMP180;7888;46.748;8.102;2022-09-01T06:39:05;94138.00;;;21.60
15575;BMP180;7888;46.748;8.102;2022-09-01T06:41:31;94146.00;;;21.60
15575;BMP180;7888;46.748;8.102;2022-09-01T06:43:57;94152.00;;;21.70
15575;BMP180;7888;46.748;8.102;2022-09-01T06:46:25;94149.00;;;21.70
15575;BMP180;7888;46.748;8.102;2022-09-01T06:48:52;94154.00;;;21.80
15575;BMP180;7888;46.748;8.102;2022-09-01T06:51:21;94153.00;;;21.80
15575;BMP180;7888;46.748;8.102;2022-09-01T06:53:50;94159.00;;;21.80
15575;BMP180;7888;46.748;8.102;2022-09-01T06:56:23;94160.00;;;21.90
15575;BMP180;7888;46.748;8.102;2022-09-01T06:58:52;94108.00;;;21.90
15575;BMP180;7888;46.748;8.102;2022-09-01T07:01:20;94157.00;;;21.90
15575;BMP180;7888;46.748;8.102;2022-09-01T07:03:50;94157.00;;;22.00
15575;BMP180;7888;46.748;8.102;2022-09-01T07:06:19;94153.00;;;22.00
15575;BMP180;7888;46.748;8.102;2022-09-01T07:08:48;94152.00;;;22.10
15575;BMP180;7888;46.748;8.102;2022-09-01T07:11:21;94141.00;;;22.10
15575;BMP180;7888;46.748;8.102;2022-09-01T07:13:55;94165.00;;;22.10
15575;BMP180;7888;46.748;8.102;2022-09-01T07:16:25;94156.00;;;22.20
15575;BMP180;7888;46.748;8.102;2022-09-01T07:18:57;94162.00;;;22.20
15575;BMP180;7888;46.748;8.102;2022-09-01T07:21:27;94159.00;;;22.20
15575;BMP180;7888;46.748;8.102;2022-09-01T07:23:53;94157.00;;;22.30
15575;BMP180;7888;46.748;8.102;2022-09-01T07:26:20;94161.00;;;22.30
15575;BMP180;7888;46.748;8.102;2022-09-01T07:28:50;94161.00;;;22.30
15575;BMP180;7888;46.748;8.102;2022-09-01T07:31:24;94166.00;;;22.30
15575;BMP180;7888;46.748;8.102;2022-09-01T07:33:53;94163.00;;;22.40
15575;BMP180;7888;46.748;8.102;2022-09-01T07:36:20;94168.00;;;22.50
15575;BMP180;7888;46.748;8.102;2022-09-01T07:38:46;94168.00;;;22.50
15575;BMP180;7888;46.748;8.102;2022-09-01T07:41:20;94167.00;;;22.50
15575;BMP180;7888;46.748;8.102;2022-09-01T07:43:47;94153.00;;;22.60
15575;BMP180;7888;46.748;8.102;2022-09-01T07:46:15;94156.00;;;22.60
15575;BMP180;7888;46.748;8.102;2022-09-01T07:48:41;94163.00;;;22.70
15575;BMP180;7888;46.748;8.102;2022-09-01T07:51:10;94167.00;;;22.70
15575;BMP180;7888;46.748;8.102;2022-09-01T07:53:37;94167.00;;;22.70
15575;BMP180;7888;46.748;8.102;2022-09-01T07:56:08;94165.00;;;22.70
15575;BMP180;7888;46.748;8.102;2022-09-01T07:58:37;94169.00;;;22.80
15575;BMP180;7888;46.748;8.102;2022-09-01T08:01:17;94169.00;;;22.80
15575;BMP180;7888;46.748;8.102;2022-09-01T08:03:50;94170.00;;;22.80
15575;BMP180;7888;46.748;8.102;2022-09-01T08:06:19;94135.00;;;22.80
15575;BMP180;7888;46.748;8.102;2022-09-01T08:08:49;94169.00;;;22.90
15575;BMP180;7888;46.748;8.102;2022-09-01T08:11:23;94153.00;;;22.90
15575;BMP180;7888;46.748;8.102;2022-09-01T08:13:52;94161.00;;;22.90
15575;BMP180;7888;46.748;8.102;2022-09-01T08:16:18;94160.00;;;23.00
15575;BMP180;7888;46.748;8.102;2022-09-01T08:18:45;94141.00;;;23.10
15575;BMP180;7888;46.748;8.102;2022-09-01T08:21:14;94154.00;;;23.10
15575;BMP180;7888;46.748;8.102;2022-09-01T08:23:41;94149.00;;;23.20
15575;BMP180;7888;46.748;8.102;2022-09-01T08:26:11;94155.00;;;23.30
15575;BMP180;7888;46.748;8.102;2022-09-01T08:28:38;94148.00;;;23.40
15575;BMP180;7888;46.748;8.102;2022-09-01T08:31:11;94149.00;;;23.50
15575;BMP180;7888;46.748;8.102;2022-09-01T08:33:39;94148.00;;;23.60
15575;BMP180;7888;46.748;8.102;2022-09-01T08:36:12;94155.00;;;23.80
15575;BMP180;7888;46.748;8.102;2022-09-01T08:38:39;94136.00;;;23.90
15575;BMP180;7888;46.748;8.102;2022-09-01T08:47:01;94121.00;;;24.20
15575;BMP180;7888;46.748;8.102;2022-09-01T08:49:28;94126.00;;;24.50
15575;BMP180;7888;46.748;8.102;2022-09-01T08:52:23;94150.00;;;24.50
15575;BMP180;7888;46.748;8.102;2022-09-01T08:57:39;94159.00;;;24.80
15575;BMP180;7888;46.748;8.102;2022-09-01T09:00:12;94154.00;;;25.00
15575;BMP180;7888;46.748;8.102;2022-09-01T09:06:18;94149.00;;;25.30
15575;BMP180;7888;46.748;8.102;2022-09-01T09:09:05;94147.00;;;25.50
15575;BMP180;7888;46.748;8.102;2022-09-01T09:15:10;94156.00;;;25.70
15575;BMP180;7888;46.748;8.102;2022-09-01T09:17:50;94144.00;;;25.80
15575;BMP180;7888;46.748;8.102;2022-09-01T09:20:20;94148.00;;;25.90
15575;BMP180;7888;46.748;8.102;2022-09-01T09:22:48;94137.00;;;26.00
15575;BMP180;7888;46.748;8.102;2022-09-01T09:25:17;94144.00;;;26.10
15575;BMP180;7888;46.748;8.102;2022-09-01T09:27:46;94144.00;;;26.20
15575;BMP180;7888;46.748;8.102;2022-09-01T09:30:24;94141.00;;;26.20
15575;BMP180;7888;46.748;8.102;2022-09-01T09:32:58;94147.00;;;26.30
15575;BMP180;7888;46.748;8.102;2022-09-01T09:35:40;94143.00;;;26.30
15575;BMP180;7888;46.748;8.102;2022-09-01T09:41:20;94140.00;;;26.30
15575;BMP180;7888;46.748;8.102;2022-09-01T09:46:40;94141.00;;;26.30
15575;BMP180;7888;46.748;8.102;2022-09-01T09:51:50;94124.00;;;26.30
15575;BMP180;7888;46.748;8.102;2022-09-01T09:54:27;94130.00;;;26.30
15575;BMP180;7888;46.748;8.102;2022-09-01T10:04:43;94119.00;;;26.80
15575;BMP180;7888;46.748;8.102;2022-09-01T10:07:34;94122.00;;;26.80
15575;BMP180;7888;46.748;8.102;2022-09-01T10:10:06;94116.00;;;26.90
15575;BMP180;7888;46.748;8.102;2022-09-01T10:12:33;94120.00;;;27.00
15575;BMP180;7888;46.748;8.102;2022-09-01T10:15:08;94125.00;;;27.00
15575;BMP180;7888;46.748;8.102;2022-09-01T10:17:40;94117.00;;;27.10
15575;BMP180;7888;46.748;8.102;2022-09-01T10:20:27;94108.00;;;27.20
15575;BMP180;7888;46.748;8.102;2022-09-01T10:22:53;94114.00;;;27.30
15575;BMP180;7888;46.748;8.102;2022-09-01T10:25:26;94114.00;;;27.40
15575;BMP180;7888;46.748;8.102;2022-09-01T10:28:06;94100.00;;;27.40
15575;BMP180;7888;46.748;8.102;2022-09-01T10:30:39;94117.00;;;27.50
15575;BMP180;7888;46.748;8.102;2022-09-01T10:33:09;94106.00;;;27.60
15575;BMP180;7888;46.748;8.102;2022-09-01T10:35:43;94095.00;;;27.60
15575;BMP180;7888;46.748;8.102;2022-09-01T10:38:18;94120.00;;;27.70
15575;BMP180;7888;46.748;8.102;2022-09-01T10:40:47;94105.00;;;27.80
15575;BMP180;7888;46.748;8.102;2022-09-01T10:43:40;94108.00;;;27.90
15575;BMP180;7888;46.748;8.102;2022-09-01T10:48:56;94104.00;;;28.10
15575;BMP180;7888;46.748;8.102;2022-09-01T10:53:56;94078.00;;;28.20
15575;BMP180;7888;46.748;8.102;2022-09-01T10:56:47;94095.00;;;28.10
15575;BMP180;7888;46.748;8.102;2022-09-01T11:13:04;94093.00;;;28.20
15575;BMP180;7888;46.748;8.102;2022-09-01T11:15:41;94060.00;;;28.30
15575;BMP180;7888;46.748;8.102;2022-09-01T11:18:29;94087.00;;;28.30
15575;BMP180;7888;46.748;8.102;2022-09-01T11:21:32;94085.00;;;28.40
15575;BMP180;7888;46.748;8.102;2022-09-01T11:27:09;94068.00;;;28.40
15575;BMP180;7888;46.748;8.102;2022-09-01T11:29:57;94075.00;;;28.40
15575;BMP180;7888;46.748;8.102;2022-09-01T11:32:33;94069.00;;;28.50
15575;BMP180;7888;46.748;8.102;2022-09-01T11:35:04;94073.00;;;28.60
15575;BMP180;7888;46.748;8.102;2022-09-01T11:37:32;94066.00;;;28.70
15575;BMP180;7888;46.748;8.102;2022-09-01T11:40:03;94074.00;;;28.80
15575;BMP180;7888;46.748;8.102;2022-09-01T11:42:43;94062.00;;;28.80
15575;BMP180;7888;46.748;8.102;2022-09-01T11:45:19;94060.00;;;28.90
15575;BMP180;7888;46.748;8.102;2022-09-01T11:48:08;94059.00;;;29.00
15575;BMP180;7888;46.748;8.102;2022-09-01T11:50:38;94060.00;;;29.10
15575;BMP180;7888;46.748;8.102;2022-09-01T11:53:11;94060.00;;;29.00
15575;BMP180;7888;46.748;8.102;2022-09-01T11:55:50;94057.00;;;29.10
15575;BMP180;7888;46.748;8.102;2022-09-01T12:01:18;94076.00;;;29.10
15575;BMP180;7888;46.748;8.102;2022-09-01T12:03:47;94070.00;;;29.20
15575;BMP180;7888;46.748;8.102;2022-09-01T12:06:27;94068.00;;;29.10
15575;BMP180;7888;46.748;8.102;2022-09-01T12:08:57;94066.00;;;29.10
15575;BMP180;7888;46.748;8.102;2022-09-01T12:11:31;94074.00;;;29.00
15575;BMP180;7888;46.748;8.102;2022-09-01T12:14:05;94073.00;;;29.10
15575;BMP180;7888;46.748;8.102;2022-09-01T12:16:34;94069.00;;;29.20
15575;BMP180;7888;46.748;8.102;2022-09-01T12:19:04;94081.00;;;29.00
15575;BMP180;7888;46.748;8.102;2022-09-01T12:21:35;94073.00;;;28.80
15575;BMP180;7888;46.748;8.102;2022-09-01T12:24:21;94081.00;;;28.60
15575;BMP180;7888;46.748;8.102;2022-09-01T12:26:52;94059.00;;;28.50
15575;BMP180;7888;46.748;8.102;2022-09-01T12:29:20;94068.00;;;28.50
15575;BMP180;7888;46.748;8.102;2022-09-01T12:31:50;94053.00;;;28.50
15575;BMP180;7888;46.748;8.102;2022-09-01T12:34:59;94072.00;;;28.30
15575;BMP180;7888;46.748;8.102;2022-09-01T12:37:26;94074.00;;;28.50
15575;BMP180;7888;46.748;8.102;2022-09-01T12:39:57;94070.00;;;28.60
15575;BMP180;7888;46.748;8.102;2022-09-01T12:42:33;94069.00;;;28.60
15575;BMP180;7888;46.748;8.102;2022-09-01T12:45:06;94077.00;;;28.80
15575;BMP180;7888;46.748;8.102;2022-09-01T12:52:51;94075.00;;;29.20
15575;BMP180;7888;46.748;8.102;2022-09-01T12:57:59;94072.00;;;29.70
15575;BMP180;7888;46.748;8.102;2022-09-01T13:00:32;94064.00;;;29.90
15575;BMP180;7888;46.748;8.102;2022-09-01T13:05:40;94073.00;;;30.40
15575;BMP180;7888;46.748;8.102;2022-09-01T13:08:18;94073.00;;;30.50
15575;BMP180;7888;46.748;8.102;2022-09-01T13:10:52;94079.00;;;30.50
15575;BMP180;7888;46.748;8.102;2022-09-01T13:13:19;94084.00;;;30.60
15575;BMP180;7888;46.748;8.102;2022-09-01T13:15:54;94082.00;;;30.70
15575;BMP180;7888;46.748;8.102;2022-09-01T13:18:23;94087.00;;;30.60
15575;BMP180;7888;46.748;8.102;2022-09-01T13:20:51;94075.00;;;30.60
15575;BMP180;7888;46.748;8.102;2022-09-01T13:23:19;94081.00;;;30.50
15575;BMP180;7888;46.748;8.102;2022-09-01T13:25:45;94080.00;;;30.50
15575;BMP180;7888;46.748;8.102;2022-09-01T13:28:15;94062.00;;;30.40
15575;BMP180;7888;46.748;8.102;2022-09-01T13:30:55;94068.00;;;30.20
15575;BMP180;7888;46.748;8.102;2022-09-01T13:33:22;94060.00;;;30.10
15575;BMP180;7888;46.748;8.102;2022-09-01T13:35:49;94065.00;;;30.00
15575;BMP180;7888;46.748;8.102;2022-09-01T13:38:16;94054.00;;;29.90
15575;BMP180;7888;46.748;8.102;2022-09-01T13:40:44;94064.00;;;29.80
15575;BMP180;7888;46.748;8.102;2022-09-01T13:43:11;94063.00;;;29.70
15575;BMP180;7888;46.748;8.102;2022-09-01T13:45:38;94055.00;;;29.70
15575;BMP180;7888;46.748;8.102;2022-09-01T13:48:07;94062.00;;;29.70
15575;BMP180;7888;46.748;8.102;2022-09-01T13:50:34;94062.00;;;29.80
15575;BMP180;7888;46.748;8.102;2022-09-01T13:53:00;94060.00;;;29.70
15575;BMP180;7888;46.748;8.102;2022-09-01T13:55:30;94056.00;;;29.60
15575;BMP180;7888;46.748;8.102;2022-09-01T13:57:56;94064.00;;;29.60
15575;BMP180;7888;46.748;8.102;2022-09-01T14:00:27;94066.00;;;29.60
15575;BMP180;7888;46.748;8.102;2022-09-01T14:02:58;94036.00;;;29.60
15575;BMP180;7888;46.748;8.102;2022-09-01T14:05:33;94059.00;;;29.60
15575;BMP180;7888;46.748;8.102;2022-09-01T14:08:00;94053.00;;;29.60
15575;BMP180;7888;46.748;8.102;2022-09-01T14:10:28;94057.00;;;29.50
15575;BMP180;7888;46.748;8.102;2022-09-01T14:12:57;94059.00;;;29.50
15575;BMP180;7888;46.748;8.102;2022-09-01T14:15:23;94055.00;;;29.60
15575;BMP180;7888;46.748;8.102;2022-09-01T14:17:52;94060.00;;;29.60
15575;BMP180;7888;46.748;8.102;2022-09-01T14:20:23;94054.00;;;29.60
15575;BMP180;7888;46.748;8.102;2022-09-01T14:22:50;94057.00;;;29.60
15575;BMP180;7888;46.748;8.102;2022-09-01T14:25:18;94053.00;;;29.50
15575;BMP180;7888;46.748;8.102;2022-09-01T14:27:45;94047.00;;;29.60
15575;BMP180;7888;46.748;8.102;2022-09-01T14:30:20;94046.00;;;29.50
15575;BMP180;7888;46.748;8.102;2022-09-01T14:32:48;94059.00;;;29.60
15575;BMP180;7888;46.748;8.102;2022-09-01T14:35:15;94061.00;;;29.60
15575;BMP180;7888;46.748;8.102;2022-09-01T14:37:42;94062.00;;;29.60
15575;BMP180;7888;46.748;8.102;2022-09-01T14:40:16;94060.00;;;29.50
15575;BMP180;7888;46.748;8.102;2022-09-01T14:42:44;94065.00;;;29.50
15575;BMP180;7888;46.748;8.102;2022-09-01T14:45:15;94063.00;;;29.50
15575;BMP180;7888;46.748;8.102;2022-09-01T14:47:44;94061.00;;;29.50
15575;BMP180;7888;46.748;8.102;2022-09-01T14:50:11;94059.00;;;29.50
15575;BMP180;7888;46.748;8.102;2022-09-01T14:52:37;94052.00;;;29.50
15575;BMP180;7888;46.748;8.102;2022-09-01T14:55:04;94060.00;;;29.50
15575;BMP180;7888;46.748;8.102;2022-09-01T14:57:31;94060.00;;;29.40
15575;BMP180;7888;46.748;8.102;2022-09-01T14:59:58;94059.00;;;29.30
15575;BMP180;7888;46.748;8.102;2022-09-01T15:02:24;94056.00;;;29.20
15575;BMP180;7888;46.748;8.102;2022-09-01T15:04:53;94062.00;;;29.10
15575;BMP180;7888;46.748;8.102;2022-09-01T15:07:19;94056.00;;;29.10
15575;BMP180;7888;46.748;8.102;2022-09-01T15:09:45;94057.00;;;29.20
15575;BMP180;7888;46.748;8.102;2022-09-01T15:12:11;94058.00;;;29.30
15575;BMP180;7888;46.748;8.102;2022-09-01T15:14:37;94050.00;;;29.30
15575;BMP180;7888;46.748;8.102;2022-09-01T15:17:04;94036.00;;;29.30
15575;BMP180;7888;46.748;8.102;2022-09-01T15:19:30;94056.00;;;29.40
15575;BMP180;7888;46.748;8.102;2022-09-01T15:21:56;94052.00;;;29.40
15575;BMP180;7888;46.748;8.102;2022-09-01T15:24:22;94050.00;;;29.40
15575;BMP180;7888;46.748;8.102;2022-09-01T15:26:49;94040.00;;;29.50
15575;BMP180;7888;46.748;8.102;2022-09-01T15:29:14;94051.00;;;29.50
15575;BMP180;7888;46.748;8.102;2022-09-01T15:31:42;94051.00;;;29.50
15575;BMP180;7888;46.748;8.102;2022-09-01T15:34:09;94046.00;;;29.50
15575;BMP180;7888;46.748;8.102;2022-09-01T15:36:38;94050.00;;;29.40
15575;BMP180;7888;46.748;8.102;2022-09-01T15:39:07;94046.00;;;29.40
15575;BMP180;7888;46.748;8.102;2022-09-01T15:41:34;94039.00;;;29.50
15575;BMP180;7888;46.748;8.102;2022-09-01T15:44:06;94046.00;;;29.60
15575;BMP180;7888;46.748;8.102;2022-09-01T15:46:34;94030.00;;;29.60
15575;BMP180;7888;46.748;8.102;2022-09-01T15:49:08;94041.00;;;29.70
15575;BMP180;7888;46.748;8.102;2022-09-01T15:54:15;94039.00;;;29.40
15575;BMP180;7888;46.748;8.102;2022-09-01T15:56:41;94048.00;;;29.30
15575;BMP180;7888;46.748;8.102;2022-09-01T15:59:09;94037.00;;;29.30